createdAt,value
2024-05-09T00:02:43.250Z,15.00
2024-05-09T00:05:46.451Z,15.02
2024-05-09T00:08:49.362Z,15.01
2024-05-09T00:11:52.302Z,14.98
2024-05-09T00:14:55.321Z,15.01
2024-05-09T00:17:58.494Z,14.98
2024-05-09T00:21:04.302Z,14.88
2024-05-09T00:24:07.335Z,14.86
2024-05-09T00:27:12.656Z,14.86
2024-05-09T00:30:24.222Z,14.88
2024-05-09T00:33:34.530Z,14.85
2024-05-09T00:36:38.178Z,14.80
2024-05-09T00:39:41.033Z,14.73
2024-05-09T00:42:43.926Z,14.74
2024-05-09T00:45:47.461Z,14.73
2024-05-09T00:48:50.433Z,14.72
2024-05-09T00:51:56.143Z,14.77
2024-05-09T00:55:00.936Z,14.77
2024-05-09T00:58:05.547Z,14.76
2024-05-09T01:01:09.269Z,14.74
2024-05-09T01:04:12.416Z,14.71
2024-05-09T01:07:15.571Z,14.75
2024-05-09T01:10:24.328Z,14.76
2024-05-09T01:13:34.962Z,14.74
2024-05-09T01:16:37.986Z,14.72
2024-05-09T01:19:41.248Z,14.71
2024-05-09T01:22:44.831Z,14.74
2024-05-09T01:25:48.807Z,14.73
2024-05-09T01:28:52.270Z,14.70
2024-05-09T01:31:59.143Z,14.66
2024-05-09T01:35:02.419Z,14.70
2024-05-09T01:38:05.593Z,14.66
2024-05-09T01:41:08.816Z,14.65
2024-05-09T01:44:11.746Z,14.65
2024-05-09T01:47:14.726Z,14.73
2024-05-09T01:50:22.496Z,14.67
2024-05-09T01:53:31.847Z,14.63
2024-05-09T01:56:34.811Z,14.67
2024-05-09T01:59:37.808Z,14.62
2024-05-09T02:02:40.878Z,14.57
2024-05-09T02:05:45.582Z,14.56
2024-05-09T02:08:48.934Z,14.61
2024-05-09T02:11:51.948Z,14.56
2024-05-09T02:14:54.950Z,14.51
2024-05-09T02:17:58.000Z,14.47
2024-05-09T02:21:01.126Z,14.46
2024-05-09T02:24:04.224Z,14.39
2024-05-09T02:27:07.104Z,14.35
2024-05-09T02:30:18.729Z,14.32
2024-05-09T02:33:29.175Z,14.24
2024-05-09T02:36:32.139Z,14.26
2024-05-09T02:39:35.033Z,14.17
2024-05-09T02:42:37.949Z,14.11
2024-05-09T02:45:41.040Z,14.02
2024-05-09T02:48:44.097Z,14.01
2024-05-09T02:51:47.055Z,13.98
2024-05-09T02:54:49.986Z,14.01
2024-05-09T02:57:52.926Z,14.06
2024-05-09T03:00:55.882Z,14.04
2024-05-09T03:03:58.952Z,14.09
2024-05-09T03:07:01.983Z,14.14
2024-05-09T03:10:07.494Z,14.21
2024-05-09T03:13:16.184Z,14.24
2024-05-09T03:16:19.795Z,14.30
2024-05-09T03:19:22.955Z,14.26
2024-05-09T03:22:26.595Z,14.25
2024-05-09T03:25:29.522Z,14.23
2024-05-09T03:28:32.502Z,14.29
2024-05-09T03:31:35.571Z,14.36
2024-05-09T03:34:41.782Z,14.42
2024-05-09T03:37:44.700Z,14.50
2024-05-09T03:40:49.814Z,14.55
2024-05-09T03:43:53.401Z,14.60
2024-05-09T03:46:56.390Z,14.58
2024-05-09T03:49:59.318Z,14.68
2024-05-09T03:53:02.429Z,14.66
2024-05-09T03:56:08.114Z,14.68
2024-05-09T03:59:11.071Z,14.74
2024-05-09T04:02:14.142Z,14.72
2024-05-09T04:05:17.567Z,14.65
2024-05-09T04:08:20.523Z,14.72
2024-05-09T04:11:23.555Z,14.70
2024-05-09T04:14:26.604Z,14.75
2024-05-09T04:17:29.894Z,14.77
2024-05-09T04:20:38.345Z,14.77
2024-05-09T04:23:43.510Z,14.83
2024-05-09T04:26:46.426Z,14.89
2024-05-09T04:29:49.327Z,14.92
2024-05-09T04:32:52.442Z,14.93
2024-05-09T04:35:55.385Z,15.01
2024-05-09T04:38:58.254Z,15.03
2024-05-09T04:42:01.128Z,14.94
2024-05-09T04:45:04.288Z,14.99
2024-05-09T04:48:08.125Z,14.93
2024-05-09T04:51:11.196Z,14.98
2024-05-09T04:54:25.986Z,14.99
2024-05-09T04:57:36.711Z,14.99
2024-05-09T05:00:40.895Z,15.08
2024-05-09T05:03:44.489Z,15.11
2024-05-09T05:06:47.482Z,15.04
2024-05-09T05:09:50.416Z,15.03
2024-05-09T05:13:11.724Z,15.06
2024-05-09T05:16:15.081Z,15.03
2024-05-09T05:19:18.136Z,15.09
2024-05-09T05:22:21.079Z,15.05
2024-05-09T05:25:23.987Z,15.11
2024-05-09T05:28:26.974Z,15.03
2024-05-09T05:31:30.017Z,15.04
2024-05-09T05:34:32.985Z,15.04
2024-05-09T05:37:35.935Z,15.17
2024-05-09T05:40:40.326Z,15.20
2024-05-09T05:43:44.118Z,15.32
2024-05-09T05:46:47.224Z,15.13
2024-05-09T05:49:50.345Z,15.24
2024-05-09T05:52:53.321Z,15.24
2024-05-09T05:55:56.468Z,15.37
2024-05-09T05:58:59.572Z,15.42
2024-05-09T06:02:02.554Z,15.48
2024-05-09T06:05:06.073Z,15.46
2024-05-09T06:08:09.452Z,15.50
2024-05-09T06:11:12.540Z,15.50
2024-05-09T06:14:15.555Z,15.63
2024-05-09T06:17:18.573Z,15.62
2024-05-09T06:20:31.518Z,15.67
2024-05-09T06:23:49.244Z,15.68
2024-05-09T06:27:01.380Z,15.77
2024-05-09T06:30:05.156Z,15.66
2024-05-09T06:33:10.828Z,15.66
2024-05-09T06:36:18.206Z,15.87
2024-05-09T06:39:23.907Z,15.97
2024-05-09T06:42:26.867Z,16.18
2024-05-09T06:45:29.848Z,16.18
2024-05-09T06:48:33.161Z,16.27
2024-05-09T06:51:39.771Z,16.63
2024-05-09T06:54:45.701Z,16.66
2024-05-09T06:57:48.692Z,16.70
2024-05-09T07:00:51.967Z,16.79
2024-05-09T07:04:01.538Z,17.07
2024-05-09T07:07:06.619Z,17.25
2024-05-09T07:10:14.969Z,17.14
2024-05-09T07:13:25.420Z,17.59
2024-05-09T07:16:28.539Z,17.58
2024-05-09T07:19:31.623Z,17.32
2024-05-09T07:22:34.711Z,16.83
2024-05-09T07:25:41.791Z,17.07
2024-05-09T07:28:44.880Z,17.22
2024-05-09T07:31:51.325Z,17.86
2024-05-09T07:34:54.398Z,17.38
2024-05-09T07:37:57.780Z,17.72
2024-05-09T07:41:06.859Z,17.73
2024-05-09T07:44:09.961Z,18.11
2024-05-09T07:48:27.956Z,18.14
2024-05-09T07:53:51.941Z,18.00
2024-05-09T07:57:03.336Z,17.32
2024-05-09T08:00:20.381Z,17.40
2024-05-09T08:03:29.982Z,17.05
2024-05-09T08:06:33.734Z,17.50
2024-05-09T08:09:38.681Z,17.94
2024-05-09T08:12:41.758Z,18.30
2024-05-09T08:15:45.008Z,18.20
2024-05-09T08:18:48.172Z,18.11
2024-05-09T08:21:51.210Z,19.03
2024-05-09T08:24:54.317Z,20.08
2024-05-09T08:27:57.364Z,19.48
2024-05-09T08:31:03.159Z,20.24
2024-05-09T08:34:08.394Z,21.52
2024-05-09T08:37:15.791Z,21.82
2024-05-09T08:40:32.822Z,23.13
2024-05-09T08:43:40.655Z,23.51
2024-05-09T08:46:51.615Z,24.72
2024-05-09T08:49:58.737Z,23.46
2024-05-09T08:53:57.456Z,22.53
2024-05-09T08:57:01.380Z,22.30
2024-05-09T09:00:10.019Z,22.66
2024-05-09T09:03:22.880Z,23.15
2024-05-09T09:06:26.490Z,23.85
2024-05-09T09:09:30.886Z,26.01
2024-05-09T09:12:34.450Z,26.74
2024-05-09T09:15:50.605Z,25.19
2024-05-09T09:18:56.358Z,25.92
2024-05-09T09:22:08.906Z,28.54
2024-05-09T09:25:12.167Z,27.50
2024-05-09T09:28:15.825Z,27.18
2024-05-09T09:31:19.803Z,25.44
2024-05-09T09:34:28.068Z,25.24
2024-05-09T09:37:31.500Z,24.94
2024-05-09T09:41:04.437Z,23.04
2024-05-09T09:44:09.301Z,23.14
2024-05-09T09:47:13.904Z,21.89
2024-05-09T09:50:24.064Z,21.83
2024-05-09T09:53:36.625Z,22.30
2024-05-09T09:56:40.212Z,22.82
2024-05-09T09:59:47.309Z,22.68
2024-05-09T10:02:50.478Z,22.02
2024-05-09T10:05:54.882Z,22.76
2024-05-09T10:08:58.189Z,22.78
2024-05-09T10:12:14.292Z,23.36
2024-05-09T10:15:20.089Z,24.60
2024-05-09T10:18:30.191Z,26.02
2024-05-09T10:21:34.567Z,26.59
2024-05-09T10:24:54.382Z,26.37
2024-05-09T10:27:57.532Z,26.42
2024-05-09T10:31:16.301Z,27.23
2024-05-09T10:34:23.724Z,26.42
2024-05-09T10:37:32.089Z,27.89
2024-05-09T10:40:36.533Z,27.46
2024-05-09T10:43:41.117Z,28.24
2024-05-09T10:46:47.437Z,29.57
2024-05-09T10:49:51.338Z,30.21
2024-05-09T10:52:54.590Z,29.89
2024-05-09T10:56:02.288Z,31.47
2024-05-09T10:59:08.125Z,31.08
2024-05-09T11:02:14.860Z,31.42
2024-05-09T11:05:19.205Z,29.80
2024-05-09T11:08:24.531Z,29.80
2024-05-09T11:11:29.059Z,30.49
2024-05-09T11:14:32.577Z,31.57
2024-05-09T11:17:39.216Z,30.49
2024-05-09T11:20:42.780Z,29.57
2024-05-09T11:23:47.066Z,29.65
2024-05-09T11:26:50.140Z,29.49
2024-05-09T11:29:53.156Z,30.71
2024-05-09T11:32:56.239Z,29.00
2024-05-09T11:35:59.403Z,30.33
2024-05-09T11:39:04.890Z,30.38
2024-05-09T11:42:07.962Z,29.29
2024-05-09T11:45:10.979Z,29.52
2024-05-09T11:48:14.083Z,30.27
2024-05-09T11:51:17.174Z,30.84
2024-05-09T11:54:20.289Z,29.27
2024-05-09T11:57:24.599Z,28.11
2024-05-09T12:00:34.166Z,27.20
2024-05-09T12:03:45.231Z,26.63
2024-05-09T12:06:51.149Z,26.90
2024-05-09T12:09:54.460Z,26.57
2024-05-09T12:12:57.651Z,26.39
2024-05-09T12:16:01.150Z,26.86
2024-05-09T12:19:04.595Z,28.06
2024-05-09T12:22:07.707Z,28.72
2024-05-09T12:25:13.339Z,29.33
2024-05-09T12:28:19.817Z,29.62
2024-05-09T12:31:23.091Z,29.09
2024-05-09T12:34:26.257Z,28.79
2024-05-09T12:37:29.387Z,26.03
2024-05-09T12:40:36.793Z,25.89
2024-05-09T12:43:41.615Z,25.69
2024-05-09T12:46:45.790Z,26.86
2024-05-09T12:49:49.401Z,26.77
2024-05-09T12:52:53.038Z,25.88
2024-05-09T12:56:00.135Z,25.67
2024-05-09T12:59:05.393Z,25.36
2024-05-09T13:02:08.540Z,26.08
2024-05-09T13:05:12.197Z,26.88
2024-05-09T13:08:16.069Z,27.73
2024-05-09T13:11:22.028Z,28.09
2024-05-09T13:14:25.105Z,26.79
2024-05-09T13:17:28.281Z,25.31
2024-05-09T13:20:35.186Z,26.25
2024-05-09T13:23:39.029Z,25.98
2024-05-09T13:26:42.085Z,27.94
2024-05-09T13:29:45.037Z,27.28
2024-05-09T13:32:47.986Z,26.36
2024-05-09T13:35:53.126Z,25.27
2024-05-09T13:38:57.389Z,24.93
2024-05-09T13:42:00.270Z,26.04
2024-05-09T13:45:03.240Z,24.70
2024-05-09T13:48:07.177Z,24.19
2024-05-09T13:51:10.270Z,25.50
2024-05-09T13:54:22.762Z,25.19
2024-05-09T13:57:26.515Z,24.98
2024-05-09T14:00:41.302Z,25.18
2024-05-09T14:03:49.645Z,25.45
2024-05-09T14:06:52.943Z,25.00
2024-05-09T14:09:58.360Z,25.34
2024-05-09T14:13:01.530Z,25.32
2024-05-09T14:16:06.224Z,25.19
2024-05-09T14:19:09.758Z,25.32
2024-05-09T14:22:13.286Z,25.25
2024-05-09T14:25:17.146Z,24.88
2024-05-09T14:28:22.225Z,25.17
2024-05-09T14:31:25.318Z,25.09
2024-05-09T14:34:29.113Z,24.99
2024-05-09T14:37:34.163Z,24.99
2024-05-09T14:40:42.613Z,24.45
2024-05-09T14:43:47.974Z,24.22
2024-05-09T14:46:51.088Z,24.60
2024-05-09T14:49:54.746Z,24.62
2024-05-09T14:52:57.724Z,24.34
2024-05-09T14:56:01.535Z,24.46
2024-05-09T14:59:04.556Z,23.87
2024-05-09T15:02:07.816Z,23.25
2024-05-09T15:05:11.513Z,23.29
2024-05-09T15:08:17.484Z,23.43
2024-05-09T15:11:20.484Z,23.83
2024-05-09T15:14:23.492Z,22.91
2024-05-09T15:17:26.652Z,23.15
2024-05-09T15:20:34.725Z,23.46
2024-05-09T15:23:39.636Z,23.36
2024-05-09T15:26:42.775Z,23.34
2024-05-09T15:29:46.045Z,23.47
2024-05-09T15:32:49.089Z,23.53
2024-05-09T15:35:52.238Z,23.33
2024-05-09T15:38:55.741Z,22.93
2024-05-09T15:41:58.656Z,23.09
2024-05-09T15:45:01.698Z,23.25
2024-05-09T15:48:05.765Z,23.06
2024-05-09T15:51:09.025Z,23.06
2024-05-09T15:54:12.520Z,23.06
2024-05-09T15:57:16.347Z,23.05
2024-05-09T16:00:28.458Z,22.72
2024-05-09T16:03:38.043Z,22.70
2024-05-09T16:06:41.379Z,22.70
2024-05-09T16:09:44.536Z,22.60
2024-05-09T16:12:47.580Z,22.57
2024-05-09T16:15:51.099Z,22.44
2024-05-09T16:18:54.244Z,22.18
2024-05-09T16:21:58.355Z,22.11
2024-05-09T16:25:01.698Z,22.08
2024-05-09T16:28:08.821Z,21.85
2024-05-09T16:31:13.737Z,21.87
2024-05-09T16:34:16.831Z,21.75
2024-05-09T16:37:20.162Z,21.59
2024-05-09T16:40:30.352Z,21.60
2024-05-09T16:43:40.280Z,21.46
2024-05-09T16:46:43.338Z,21.34
2024-05-09T16:49:46.482Z,21.30
2024-05-09T16:52:49.455Z,21.11
2024-05-09T16:55:52.559Z,21.12
2024-05-09T16:58:55.823Z,20.93
2024-05-09T17:01:59.009Z,20.85
2024-05-09T17:05:02.519Z,20.68
2024-05-09T17:08:06.388Z,20.54
2024-05-09T17:11:11.573Z,20.49
2024-05-09T17:14:14.794Z,20.31
2024-05-09T17:17:19.147Z,20.18
2024-05-09T17:20:29.570Z,20.04
2024-05-09T17:23:37.464Z,19.84
2024-05-09T17:26:40.447Z,19.70
2024-05-09T17:29:43.602Z,19.58
2024-05-09T17:32:46.681Z,19.38
2024-05-09T17:35:51.524Z,19.28
2024-05-09T17:38:55.036Z,19.14
2024-05-09T17:41:57.954Z,19.00
2024-05-09T17:45:01.027Z,18.89
2024-05-09T17:48:05.070Z,18.79
2024-05-09T17:51:08.445Z,18.68
2024-05-09T17:54:11.334Z,18.59
2024-05-09T17:57:14.372Z,18.47
2024-05-09T18:00:24.778Z,18.32
2024-05-09T18:03:37.466Z,18.09
2024-05-09T18:06:40.918Z,17.98
2024-05-09T18:09:44.586Z,17.85
2024-05-09T18:12:48.287Z,17.75
2024-05-09T18:15:52.166Z,17.70
2024-05-09T18:18:56.104Z,17.67
2024-05-09T18:21:59.274Z,17.76
2024-05-09T18:25:02.981Z,17.75
2024-05-09T18:28:07.012Z,17.61
2024-05-09T18:31:10.215Z,17.55
2024-05-09T18:34:14.148Z,17.47
2024-05-09T18:37:18.105Z,17.41
2024-05-09T18:40:31.137Z,17.38
2024-05-09T18:43:44.744Z,17.22
2024-05-09T18:46:48.640Z,17.02
2024-05-09T18:49:51.966Z,16.86
2024-05-09T18:52:55.244Z,16.72
2024-05-09T18:55:58.226Z,16.60
2024-05-09T18:59:01.189Z,16.44
2024-05-09T19:02:04.527Z,16.36
2024-05-09T19:05:07.907Z,16.28
2024-05-09T19:08:11.599Z,16.22
2024-05-09T19:11:14.620Z,16.16
2024-05-09T19:14:18.615Z,16.07
2024-05-09T19:17:21.964Z,16.02
2024-05-09T19:20:31.606Z,15.98
2024-05-09T19:23:38.529Z,15.95
2024-05-09T19:26:47.836Z,15.83
2024-05-09T19:29:53.396Z,15.71
2024-05-09T19:32:58.931Z,15.60
2024-05-09T19:36:02.006Z,15.51
2024-05-09T19:39:05.883Z,15.46
2024-05-09T19:42:09.174Z,15.38
2024-05-09T19:45:12.385Z,15.35
2024-05-09T19:48:16.280Z,15.27
2024-05-09T19:51:19.413Z,15.19
2024-05-09T19:54:22.490Z,15.17
2024-05-09T19:57:25.615Z,15.11
2024-05-09T20:00:34.950Z,15.14
2024-05-09T20:03:39.550Z,15.05
2024-05-09T20:06:42.962Z,15.06
2024-05-09T20:09:47.002Z,14.96
2024-05-09T20:12:51.490Z,14.95
2024-05-09T20:15:55.413Z,14.93
2024-05-09T20:18:59.664Z,14.82
2024-05-09T20:22:03.716Z,14.73
2024-05-09T20:25:07.388Z,14.64
2024-05-09T20:28:11.072Z,14.56
2024-05-09T20:31:22.842Z,14.50
2024-05-09T20:34:26.039Z,14.44
2024-05-09T20:37:29.387Z,14.39
2024-05-09T20:40:36.464Z,14.32
2024-05-09T20:43:42.033Z,14.22
2024-05-09T20:46:45.522Z,14.13
2024-05-09T20:49:48.592Z,14.14
2024-05-09T20:52:51.652Z,14.14
2024-05-09T20:55:54.672Z,14.09
2024-05-09T20:58:58.323Z,14.10
2024-05-09T21:02:01.273Z,14.10
2024-05-09T21:05:05.166Z,14.10
2024-05-09T21:08:08.966Z,14.00
2024-05-09T21:11:12.072Z,13.97
2024-05-09T21:14:15.020Z,13.82
2024-05-09T21:17:18.353Z,13.72
2024-05-09T21:20:28.281Z,13.66
2024-05-09T21:23:33.764Z,13.56
2024-05-09T21:26:37.573Z,13.46
2024-05-09T21:29:40.535Z,13.51
2024-05-09T21:32:43.508Z,13.47
2024-05-09T21:35:46.547Z,13.37
2024-05-09T21:38:49.477Z,13.24
2024-05-09T21:41:52.396Z,13.15
2024-05-09T21:44:55.332Z,13.16
2024-05-09T21:47:58.445Z,13.08
2024-05-09T21:51:01.471Z,12.93
2024-05-09T21:54:04.388Z,12.99
2024-05-09T21:57:09.177Z,12.87
2024-05-09T22:00:28.170Z,12.90
2024-05-09T22:03:38.047Z,12.77
2024-05-09T22:06:41.100Z,12.79
2024-05-09T22:09:45.611Z,12.94
2024-05-09T22:12:48.653Z,12.80
2024-05-09T22:15:51.626Z,12.71
2024-05-09T22:18:54.767Z,12.65
2024-05-09T22:21:57.768Z,12.64
2024-05-09T22:25:01.178Z,12.57
2024-05-09T22:28:04.638Z,12.55
2024-05-09T22:31:09.447Z,12.54
2024-05-09T22:34:12.542Z,12.48
2024-05-09T22:37:15.594Z,12.43
2024-05-09T22:40:28.273Z,12.44
2024-05-09T22:43:40.137Z,12.49
2024-05-09T22:46:43.080Z,12.38
2024-05-09T22:49:46.036Z,12.31
2024-05-09T22:52:49.014Z,12.26
2024-05-09T22:55:52.201Z,12.14
2024-05-09T22:58:56.069Z,12.06
2024-05-09T23:01:59.135Z,12.06
2024-05-09T23:05:02.501Z,11.98
2024-05-09T23:08:05.780Z,11.88
2024-05-09T23:11:09.589Z,12.02
2024-05-09T23:14:12.670Z,12.05
2024-05-09T23:17:15.619Z,11.96
2024-05-09T23:20:29.624Z,11.96
2024-05-09T23:23:39.531Z,11.90
2024-05-09T23:26:45.572Z,11.82
2024-05-09T23:29:48.473Z,11.83
2024-05-09T23:32:51.495Z,11.70
2024-05-09T23:35:54.710Z,11.74
2024-05-09T23:38:57.643Z,11.68
2024-05-09T23:42:00.597Z,11.69
2024-05-09T23:45:03.566Z,11.58
2024-05-09T23:48:07.061Z,11.57
2024-05-09T23:51:10.211Z,11.55
2024-05-09T23:54:13.108Z,11.61
2024-05-09T23:57:16.149Z,11.59
